Time;durP1;ratioP1;P1;durP2;ratioP2;P2;SDS_P1;SDS_P2;PMS_P1;PMS_P2;Temp;Humidity;BMP_temperature;BMP_pressure;BME280_temperature;BME280_humidity;BME280_pressure;Samples;Min_cycle;Max_cycle;Signal;HPM_P1;HPM_P2
2022/09/04 00:02:06;;;;;;;3.35;1.80;;;21.70;66.80;;;;;;10502130;28;20048;-64
2022/09/04 00:07:43;;;;;;;2.20;1.60;;;21.70;66.70;;;;;;10502514;28;20037;-65
2022/09/04 00:13:21;;;;;;;2.47;1.63;;;21.70;66.60;;;;;;10503977;28;20028;-63
2022/09/04 00:18:52;;;;;;;1.50;1.40;;;21.60;66.60;;;;;;10501040;28;21570;-63
2022/09/04 00:24:17;;;;;;;2.03;1.23;;;21.60;66.60;;;;;;10506591;28;20044;-63
2022/09/04 00:29:58;;;;;;;2.45;1.60;;;21.60;66.60;;;;;;10502252;28;20024;-63
2022/09/04 00:35:20;;;;;;;1.90;1.55;;;21.50;66.60;;;;;;10504553;28;20017;-63
2022/09/04 00:41:16;;;;;;;3.35;1.55;;;21.50;66.60;;;;;;10511421;28;20119;-63
2022/09/04 00:46:58;;;;;;;1.80;1.60;;;21.50;66.50;;;;;;10502558;28;20029;-63
2022/09/04 00:53:03;;;;;;;1.77;1.60;;;21.40;66.40;;;;;;10506708;28;20059;-63
2022/09/04 00:58:50;;;;;;;4.07;1.45;;;21.40;66.40;;;;;;10459701;28;20110;-63
2022/09/04 01:04:42;;;;;;;2.00;1.60;;;21.40;66.50;;;;;;10504662;28;20424;-63
2022/09/04 01:10:15;;;;;;;2.58;1.45;;;21.30;66.50;;;;;;10501063;28;20036;-63
2022/09/04 01:16:09;;;;;;;2.30;1.52;;;21.30;66.50;;;;;;10504644;28;20032;-63
2022/09/04 01:22:00;;;;;;;2.05;1.70;;;21.30;66.50;;;;;;10501117;28;20028;-64
2022/09/04 01:27:43;;;;;;;2.15;1.30;;;21.20;66.40;;;;;;10500409;28;20028;-63
2022/09/04 01:33:21;;;;;;;1.67;1.50;;;21.20;66.40;;;;;;10494672;28;20024;-63
2022/09/04 01:39:10;;;;;;;2.60;1.38;;;21.20;66.40;;;;;;10495861;28;20436;-63
2022/09/04 01:44:31;;;;;;;1.45;1.35;;;21.10;66.20;;;;;;10494704;28;20036;-64
2022/09/04 01:50:08;;;;;;;3.20;1.35;;;21.10;66.30;;;;;;10507381;28;20037;-65
2022/09/04 01:55:40;;;;;;;3.72;1.95;;;21.10;66.30;;;;;;10499426;28;20040;-63
2022/09/04 02:01:16;;;;;;;2.05;1.65;;;21.10;66.90;;;;;;10495082;28;20037;-63
2022/09/04 02:07:20;;;;;;;2.17;1.50;;;21.00;66.20;;;;;;10502037;28;20040;-63
2022/09/04 02:13:01;;;;;;;2.22;1.40;;;21.00;66.20;;;;;;10472283;28;20037;-62
2022/09/04 02:18:44;;;;;;;1.63;1.40;;;21.00;66.90;;;;;;10502254;28;20028;-64
2022/09/04 02:24:03;;;;;;;1.88;1.50;;;20.90;66.20;;;;;;10500089;28;20032;-63
2022/09/04 02:29:57;;;;;;;2.22;1.70;;;20.90;66.30;;;;;;10503165;28;20056;-64
2022/09/04 02:35:41;;;;;;;3.45;1.50;;;20.90;66.20;;;;;;10504015;28;20024;-62
2022/09/04 02:41:13;;;;;;;2.15;1.55;;;20.90;66.20;;;;;;10511033;28;20024;-64
2022/09/04 02:46:59;;;;;;;2.33;1.55;;;20.80;66.30;;;;;;10505641;28;20036;-63
2022/09/04 02:52:26;;;;;;;1.90;1.70;;;20.80;66.20;;;;;;10515978;28;20487;-63
2022/09/04 02:58:00;;;;;;;5.23;1.77;;;20.80;66.30;;;;;;10506837;28;20028;-63
2022/09/04 03:03:39;;;;;;;1.80;1.58;;;20.70;66.30;;;;;;10506359;28;20778;-63
2022/09/04 03:09:03;;;;;;;2.45;1.55;;;20.70;66.30;;;;;;10509267;28;20036;-64
2022/09/04 03:14:41;;;;;;;2.05;1.70;;;20.70;66.40;;;;;;10488796;28;20036;-63
2022/09/04 03:20:13;;;;;;;2.40;1.75;;;20.70;66.40;;;;;;10514787;28;20052;-62
2022/09/04 03:25:38;;;;;;;1.77;1.67;;;20.60;66.40;;;;;;10517367;28;20040;-63
2022/09/04 03:31:04;;;;;;;2.10;1.55;;;20.60;66.50;;;;;;10501160;28;20021;-62
2022/09/04 03:36:48;;;;;;;1.83;1.65;;;20.60;66.50;;;;;;10510136;28;20032;-64
2022/09/04 03:42:31;;;;;;;2.85;1.58;;;20.50;66.40;;;;;;10505663;28;20045;-63
2022/09/04 03:48:04;;;;;;;2.47;1.60;;;20.50;66.50;;;;;;10506113;28;20040;-63
2022/09/04 03:53:29;;;;;;;1.75;1.65;;;20.50;66.50;;;;;;10508859;28;20405;-63
2022/09/04 03:58:57;;;;;;;3.53;1.85;;;20.40;66.50;;;;;;10508050;28;21077;-64
2022/09/04 04:04:35;;;;;;;2.22;2.03;;;20.40;66.50;;;;;;10502714;28;20047;-62
2022/09/04 04:10:32;;;;;;;1.90;1.70;;;20.40;66.50;;;;;;10507450;28;20036;-62
2022/09/04 04:16:21;;;;;;;1.70;1.60;;;20.40;66.50;;;;;;10506268;28;20028;-62
2022/09/04 04:22:18;;;;;;;2.70;1.60;;;20.30;66.50;;;;;;10504260;28;20455;-62
2022/09/04 04:27:46;;;;;;;2.63;1.70;;;20.30;66.50;;;;;;10505784;28;20032;-63
2022/09/04 04:33:31;;;;;;;2.35;1.60;;;20.30;66.60;;;;;;10503378;28;20136;-63
2022/09/04 04:39:25;;;;;;;4.40;1.70;;;20.30;66.70;;;;;;10484657;28;20491;-62
2022/09/04 04:50:39;;;;;;;3.30;1.80;;;20.20;66.70;;;;;;10496471;28;20036;-62
2022/09/04 04:56:04;;;;;;;2.83;1.90;;;20.20;66.70;;;;;;10494395;28;20036;-62
2022/09/04 05:01:57;;;;;;;1.73;1.63;;;20.20;66.70;;;;;;10500702;28;20048;-62
2022/09/04 05:07:21;;;;;;;2.17;1.77;;;20.20;66.80;;;;;;10449246;28;20147;-64
2022/09/04 05:13:00;;;;;;;2.72;1.83;;;20.10;66.80;;;;;;10417273;28;20116;-63
2022/09/04 05:18:32;;;;;;;3.10;1.85;;;20.10;66.80;;;;;;10433774;28;20044;-63
2022/09/04 05:23:56;;;;;;;2.35;1.80;;;20.10;66.80;;;;;;10421358;28;20535;-62
2022/09/04 05:29:22;;;;;;;2.53;2.03;;;20.10;66.80;;;;;;10413200;28;20481;-63
2022/09/04 05:35:05;;;;;;;2.38;1.70;;;20.10;66.80;;;;;;10424249;28;20886;-63
2022/09/04 05:40:47;;;;;;;2.55;1.90;;;20.20;66.90;;;;;;10425415;28;20485;-64
2022/09/04 05:46:44;;;;;;;3.30;2.05;;;20.00;66.80;;;;;;10421124;28;20354;-65
2022/09/04 05:52:34;;;;;;;3.07;1.97;;;20.00;66.90;;;;;;10406536;28;20123;-63
2022/09/04 05:57:54;;;;;;;2.45;1.98;;;20.00;66.90;;;;;;10413683;28;20316;-63
2022/09/04 06:03:49;;;;;;;2.03;1.60;;;20.00;66.90;;;;;;10420921;28;20110;-64
2022/09/04 06:09:21;;;;;;;3.15;1.90;;;20.00;67.00;;;;;;10424747;28;20113;-64
2022/09/04 06:15:07;;;;;;;2.08;1.80;;;20.00;67.00;;;;;;10425599;28;20035;-64
2022/09/04 06:20:31;;;;;;;2.10;1.90;;;20.00;67.10;;;;;;10428626;28;20040;-64
2022/09/04 06:26:00;;;;;;;2.47;1.77;;;20.00;67.10;;;;;;10429744;28;20056;-63
2022/09/04 06:31:19;;;;;;;2.78;1.75;;;20.00;67.30;;;;;;10421475;28;20300;-62
2022/09/04 06:37:13;;;;;;;2.95;2.08;;;20.00;67.20;;;;;;10422985;28;20063;-63
2022/09/04 06:42:54;;;;;;;1.60;1.50;;;20.00;67.30;;;;;;10420365;28;20029;-63
2022/09/04 06:48:51;;;;;;;3.28;1.80;;;20.00;67.30;;;;;;10434755;28;20044;-63
2022/09/04 06:54:34;;;;;;;1.98;1.77;;;20.00;67.40;;;;;;10423309;28;20555;-65
2022/09/04 07:00:10;;;;;;;2.28;1.80;;;20.00;67.30;;;;;;10418356;28;20942;-63
2022/09/04 07:05:54;;;;;;;2.17;1.80;;;20.00;67.30;;;;;;10433449;28;20056;-63
2022/09/04 07:11:27;;;;;;;2.25;1.63;;;20.00;67.40;;;;;;10420352;28;20041;-64
2022/09/04 07:16:49;;;;;;;1.80;1.70;;;20.10;67.30;;;;;;10410333;28;20032;-63
2022/09/04 07:22:24;;;;;;;3.28;1.92;;;20.20;67.30;;;;;;10424182;28;20040;-64
2022/09/04 07:28:12;;;;;;;3.78;2.13;;;20.20;67.60;;;;;;10421779;28;20032;-63
2022/09/04 07:33:41;;;;;;;2.05;1.83;;;20.30;67.60;;;;;;10422187;28;20119;-64
2022/09/04 07:39:25;;;;;;;1.90;1.80;;;20.30;67.50;;;;;;10409459;28;20571;-65
2022/09/04 07:45:05;;;;;;;3.22;1.77;;;20.40;67.50;;;;;;10428092;28;20029;-63
2022/09/04 07:50:31;;;;;;;2.10;1.88;;;20.40;67.70;;;;;;10429312;28;20044;-65
2022/09/04 07:55:55;;;;;;;2.95;1.73;;;20.40;67.50;;;;;;10428266;28;20107;-63
2022/09/04 08:01:53;;;;;;;1.90;1.73;;;20.40;67.40;;;;;;10429198;28;20135;-64
2022/09/04 08:07:47;;;;;;;2.10;1.80;;;20.40;67.70;;;;;;10414552;28;21004;-63
2022/09/04 08:13:24;;;;;;;2.08;1.80;;;20.50;67.60;;;;;;10423344;28;20424;-67
2022/09/04 08:18:54;;;;;;;;;;;20.50;67.70;;;;;;10423366;28;20840;-65
2022/09/04 08:24:41;;;;;;;2.92;1.85;;;20.50;68.00;;;;;;10420734;28;19912;-64
2022/09/04 08:30:07;;;;;;;2.10;1.63;;;20.50;67.70;;;;;;10426159;28;20036;-63
2022/09/04 08:35:40;;;;;;;1.98;1.70;;;20.60;67.50;;;;;;10423817;28;20038;-65
2022/09/04 08:41:34;;;;;;;3.10;2.03;;;20.60;67.60;;;;;;10424870;28;20146;-64
2022/09/04 08:47:31;;;;;;;1.95;1.65;;;20.60;67.90;;;;;;10403061;28;20143;-63
2022/09/04 08:53:10;;;;;;;4.20;1.90;;;20.60;67.90;;;;;;10426086;28;20237;-64
2022/09/04 08:58:44;;;;;;;1.92;1.70;;;20.70;68.00;;;;;;10416771;28;20036;-63
2022/09/04 09:04:31;;;;;;;2.30;2.05;;;20.70;67.90;;;;;;10416427;28;20059;-63
2022/09/04 09:10:08;;;;;;;3.13;1.95;;;20.80;68.30;;;;;;10416590;28;20139;-66
2022/09/04 09:15:55;;;;;;;3.10;2.05;;;20.80;68.30;;;;;;10418649;28;20048;-63
2022/09/04 09:21:22;;;;;;;3.70;2.30;;;20.90;68.50;;;;;;10419376;28;20036;-63
2022/09/04 09:27:12;;;;;;;2.10;1.90;;;20.90;68.20;;;;;;10411847;28;20059;-63
2022/09/04 09:32:56;;;;;;;2.15;1.85;;;21.00;68.80;;;;;;10425392;28;20028;-68
2022/09/04 09:38:43;;;;;;;2.72;1.88;;;21.10;68.90;;;;;;10420764;28;20082;-63
2022/09/04 09:44:11;;;;;;;2.92;1.90;;;21.10;68.80;;;;;;10416816;28;20639;-63
2022/09/04 09:50:28;;;;;;;2.28;2.08;;;21.20;68.80;;;;;;10429803;28;20098;-64
2022/09/04 09:56:23;;;;;;;2.13;1.90;;;21.20;69.30;;;;;;10397354;28;20048;-66
2022/09/04 10:02:00;;;;;;;2.78;1.95;;;21.30;69.50;;;;;;10422937;28;20041;-64
2022/09/04 10:07:57;;;;;;;2.53;2.30;;;21.40;69.20;;;;;;10428738;28;20045;-63
2022/09/04 10:13:48;;;;;;;2.47;1.83;;;21.40;69.60;;;;;;10429928;28;20047;-63
2022/09/04 10:19:17;;;;;;;2.78;2.30;;;21.60;69.50;;;;;;10424934;28;20368;-63
2022/09/04 10:25:47;;;;;;;2.13;1.92;;;21.60;69.20;;;;;;10426089;28;20039;-62
2022/09/04 10:31:25;;;;;;;2.20;1.80;;;21.70;70.20;;;;;;10306371;28;20040;-66
2022/09/04 10:37:08;;;;;;;2.75;2.42;;;21.70;70.00;;;;;;10423013;28;20863;-63
2022/09/04 10:43:09;;;;;;;3.08;2.00;;;21.80;70.00;;;;;;10424662;28;20036;-63
2022/09/04 10:48:54;;;;;;;2.45;2.13;;;21.90;70.30;;;;;;10422783;28;20095;-69
2022/09/04 10:54:26;;;;;;;2.28;2.00;;;21.90;70.00;;;;;;10425435;28;21025;-63
2022/09/04 11:00:21;;;;;;;2.33;2.13;;;22.00;70.00;;;;;;10425626;28;22073;-63
2022/09/04 11:06:48;;;;;;;2.40;2.20;;;22.10;70.60;;;;;;10412730;23;20060;-67
2022/09/04 11:12:20;;;;;;;2.17;1.90;;;22.10;70.80;;;;;;10422280;22;20056;-63
2022/09/04 11:18:03;;;;;;;2.25;2.05;;;22.20;70.50;;;;;;10414597;28;20351;-67
2022/09/04 11:23:42;;;;;;;2.28;2.00;;;22.30;70.90;;;;;;10424260;28;20205;-64
2022/09/04 11:29:09;;;;;;;2.83;2.53;;;22.40;70.30;;;;;;10423517;28;20039;-65
2022/09/04 11:34:41;;;;;;;2.38;2.17;;;22.40;70.80;;;;;;10410065;28;20767;-66
2022/09/04 11:40:24;;;;;;;2.72;2.20;;;22.50;70.60;;;;;;10405823;28;20105;-66
2022/09/04 11:45:53;;;;;;;3.13;2.30;;;22.60;70.80;;;;;;10413777;28;20036;-66
2022/09/04 11:51:33;;;;;;;2.83;2.50;;;22.60;70.60;;;;;;10424745;28;20035;-64
2022/09/04 11:57:14;;;;;;;2.70;2.47;;;22.70;70.90;;;;;;10413604;28;20037;-65
2022/09/04 12:02:52;;;;;;;2.88;2.20;;;22.70;71.50;;;;;;10410393;28;20024;-65
2022/09/04 12:08:42;;;;;;;2.78;2.20;;;22.80;71.50;;;;;;10408154;28;20591;-66
2022/09/04 12:14:21;;;;;;;3.15;2.53;;;22.90;71.60;;;;;;10411882;28;20049;-65
2022/09/04 12:19:47;;;;;;;3.13;2.35;;;22.90;71.10;;;;;;10405641;28;20024;-64
2022/09/04 12:25:33;;;;;;;3.03;2.60;;;23.00;71.30;;;;;;10398540;28;20907;-63
2022/09/04 12:31:21;;;;;;;3.08;2.33;;;23.10;71.80;;;;;;10402292;28;20743;-65
2022/09/04 12:36:58;;;;;;;2.88;2.60;;;23.10;71.60;;;;;;10395825;28;20066;-64
2022/09/04 12:42:17;;;;;;;2.63;2.43;;;23.20;71.40;;;;;;10396497;28;20058;-63
2022/09/04 12:47:46;;;;;;;3.42;2.88;;;23.20;71.40;;;;;;10398159;28;20040;-64
2022/09/04 12:53:46;;;;;;;3.25;2.30;;;23.30;71.70;;;;;;10401218;28;20033;-65
2022/09/04 12:59:21;;;;;;;2.95;2.47;;;23.40;71.60;;;;;;10288636;28;20030;-64
2022/09/04 13:05:06;;;;;;;2.80;2.60;;;23.40;71.90;;;;;;10395011;28;20899;-64
2022/09/04 13:10:53;;;;;;;3.05;2.50;;;23.40;72.00;;;;;;10399455;28;20033;-65
2022/09/04 13:16:38;;;;;;;3.10;2.75;;;23.40;72.10;;;;;;10402390;28;20935;-65
2022/09/04 13:22:11;;;;;;;3.20;2.85;;;23.50;72.30;;;;;;10406006;28;20977;-71
2022/09/04 13:27:49;;;;;;;2.80;2.50;;;23.60;72.10;;;;;;10409441;28;20044;-64
2022/09/04 13:33:19;;;;;;;3.53;2.78;;;23.60;71.80;;;;;;10394987;28;20102;-65
2022/09/04 13:39:04;;;;;;;2.92;2.60;;;23.80;72.10;;;;;;10399397;28;20036;-65
2022/09/04 13:44:37;;;;;;;2.60;2.40;;;23.80;72.20;;;;;;10398112;28;20045;-64
2022/09/04 13:50:42;;;;;;;3.03;2.72;;;23.90;72.20;;;;;;10397360;28;20157;-65
2022/09/04 13:56:15;;;;;;;2.80;2.60;;;23.90;72.10;;;;;;10363904;28;20150;-68
2022/09/04 14:01:44;;;;;;;3.00;2.70;;;24.00;72.10;;;;;;10412361;28;20099;-65
2022/09/04 14:07:23;;;;;;;3.15;2.75;;;24.00;72.20;;;;;;10416203;28;20036;-70
2022/09/04 14:13:10;;;;;;;2.67;2.47;;;24.00;72.40;;;;;;10413414;28;20052;-66
2022/09/04 14:18:54;;;;;;;3.20;2.70;;;24.00;72.60;;;;;;10413316;28;20033;-66
2022/09/04 14:24:31;;;;;;;3.60;2.83;;;24.00;72.70;;;;;;10415501;28;20049;-64
2022/09/04 14:30:13;;;;;;;3.30;2.90;;;24.00;72.80;;;;;;10414550;28;20157;-65
2022/09/04 14:35:58;;;;;;;2.88;2.67;;;23.90;72.80;;;;;;10423998;28;20032;-69
2022/09/04 14:41:26;;;;;;;3.38;2.70;;;24.00;73.00;;;;;;10420219;28;20036;-69
2022/09/04 14:47:10;;;;;;;2.97;2.78;;;23.90;72.90;;;;;;10413269;28;20135;-64
2022/09/04 14:52:53;;;;;;;3.03;2.72;;;24.00;73.10;;;;;;10405830;28;20036;-66
2022/09/04 14:58:20;;;;;;;4.28;2.70;;;24.10;73.20;;;;;;10414365;28;20063;-65
2022/09/04 15:04:19;;;;;;;2.90;2.70;;;24.20;72.50;;;;;;10404323;28;20036;-67
2022/09/04 15:09:47;;;;;;;3.47;3.00;;;24.40;72.50;;;;;;10407175;28;20083;-63
2022/09/04 15:15:20;;;;;;;3.17;2.88;;;24.40;72.20;;;;;;10409793;28;20698;-70
2022/09/04 15:20:51;;;;;;;3.42;2.80;;;24.50;72.10;;;;;;10416371;28;20752;-71
2022/09/04 15:28:43;;;;;;;3.47;3.05;;;24.60;71.80;;;;;;10377464;27;20118;-64
2022/09/04 15:34:06;;;;;;;3.20;2.85;;;24.70;72.20;;;;;;10507447;28;20478;-65
2022/09/04 15:39:31;;;;;;;7.07;3.30;;;24.70;71.90;;;;;;10502572;27;20066;-65
2022/09/04 15:44:50;;;;;;;3.17;2.88;;;24.70;72.00;;;;;;10512306;28;20600;-68
2022/09/04 15:50:21;;;;;;;3.20;2.85;;;24.70;72.10;;;;;;10506974;27;20035;-64
2022/09/04 15:55:44;;;;;;;2.80;2.60;;;24.70;72.40;;;;;;10504641;27;20941;-64
2022/09/04 16:01:08;;;;;;;3.25;2.95;;;24.60;72.50;;;;;;10488148;28;20136;-65
2022/09/04 16:06:42;;;;;;;3.35;3.05;;;24.50;73.10;;;;;;10491589;27;20113;-65
2022/09/04 16:12:20;;;;;;;3.10;2.85;;;24.60;72.80;;;;;;10494462;27;20074;-64
2022/09/04 16:17:48;;;;;;;3.22;2.92;;;24.50;72.90;;;;;;10496085;28;20043;-64
2022/09/04 16:23:10;;;;;;;3.38;3.08;;;24.50;72.90;;;;;;10490742;27;20332;-64
2022/09/04 16:28:52;;;;;;;3.38;2.80;;;24.50;72.90;;;;;;10504243;28;20743;-64
2022/09/04 16:34:35;;;;;;;3.60;3.25;;;24.50;73.20;;;;;;10504368;27;20027;-64
2022/09/04 16:40:00;;;;;;;3.88;3.40;;;24.40;73.20;;;;;;10476635;28;20035;-64
2022/09/04 16:45:28;;;;;;;3.90;3.40;;;24.40;73.10;;;;;;10475489;28;20316;-64
2022/09/04 16:50:55;;;;;;;3.65;3.20;;;24.40;73.20;;;;;;10481591;28;20031;-65
2022/09/04 16:56:39;;;;;;;5.32;3.50;;;24.40;73.20;;;;;;10482082;28;20309;-65
2022/09/04 17:02:15;;;;;;;4.90;3.45;;;24.20;73.30;;;;;;10459483;28;20502;-64
2022/09/04 17:07:43;;;;;;;4.22;3.13;;;24.30;73.40;;;;;;10478123;28;20131;-64
2022/09/04 17:13:18;;;;;;;4.55;3.65;;;24.30;73.40;;;;;;10473440;28;20205;-66
2022/09/04 17:18:46;;;;;;;4.47;3.60;;;24.20;73.40;;;;;;10454844;28;20019;-64
2022/09/04 17:24:20;;;;;;;5.05;3.63;;;24.20;73.50;;;;;;10473807;28;20327;-67
2022/09/04 17:29:56;;;;;;;6.10;3.35;;;24.20;73.50;;;;;;10479476;28;20036;-66
2022/09/04 17:35:20;;;;;;;4.35;3.20;;;24.20;73.60;;;;;;10476096;28;20035;-65
2022/09/04 17:41:06;;;;;;;3.67;3.28;;;24.20;73.60;;;;;;10477975;28;20402;-65
2022/09/04 17:46:36;;;;;;;3.30;3.00;;;24.10;73.60;;;;;;10470563;28;20451;-64
2022/09/04 17:52:01;;;;;;;3.92;3.22;;;24.10;73.70;;;;;;10466359;28;20824;-64
2022/09/04 17:57:52;;;;;;;3.95;3.47;;;24.00;73.60;;;;;;10468880;28;20497;-64
2022/09/04 18:03:28;;;;;;;3.42;3.13;;;24.10;73.90;;;;;;10471804;28;20035;-67
2022/09/04 18:08:54;;;;;;;4.18;3.13;;;24.00;73.90;;;;;;10472019;28;20139;-69
2022/09/04 18:14:36;;;;;;;3.17;2.88;;;24.00;73.90;;;;;;10459571;28;20171;-65
2022/09/04 18:20:14;;;;;;;3.85;3.17;;;24.00;74.00;;;;;;10451718;28;20031;-64
2022/09/04 18:25:51;;;;;;;3.40;3.10;;;23.90;74.00;;;;;;10463974;28;20348;-64
2022/09/04 18:31:22;;;;;;;3.97;3.25;;;23.90;74.10;;;;;;10464854;28;20539;-64
2022/09/04 18:37:00;;;;;;;3.50;3.20;;;23.80;74.10;;;;;;10457088;28;20355;-65
2022/09/04 18:42:47;;;;;;;4.45;3.10;;;23.80;74.20;;;;;;10483211;28;20012;-65
2022/09/04 18:48:08;;;;;;;;;;;23.80;74.20;;;;;;10555746;28;20531;-69
2022/09/04 18:53:45;;;;;;;3.70;3.10;;;23.70;74.30;;;;;;10558925;28;19912;-63
2022/09/04 18:59:20;;;;;;;4.63;2.92;;;23.70;74.30;;;;;;10556530;28;20339;-68
2022/09/04 19:04:58;;;;;;;4.43;3.00;;;23.60;74.20;;;;;;10553915;28;20114;-64
2022/09/04 19:10:20;;;;;;;3.53;2.90;;;23.60;74.40;;;;;;10556707;28;20031;-63
2022/09/04 19:16:01;;;;;;;3.20;2.90;;;23.60;74.40;;;;;;10546277;28;20031;-64
2022/09/04 19:21:32;;;;;;;3.33;2.67;;;23.60;74.50;;;;;;10537759;28;20429;-69
2022/09/04 19:26:55;;;;;;;4.47;2.80;;;23.50;74.40;;;;;;10545215;28;20048;-66
2022/09/04 19:32:26;;;;;;;3.00;2.70;;;23.50;74.40;;;;;;10544669;28;20023;-64
2022/09/04 19:37:57;;;;;;;3.35;3.05;;;23.50;74.40;;;;;;10543420;28;20031;-64
2022/09/04 19:43:40;;;;;;;3.90;3.00;;;23.40;74.40;;;;;;10540458;28;20031;-69
2022/09/04 19:49:23;;;;;;;3.05;2.70;;;23.40;74.40;;;;;;10542285;28;20043;-64
2022/09/04 19:54:42;;;;;;;3.28;2.95;;;23.30;74.40;;;;;;10544052;28;20047;-64
2022/09/04 20:00:08;;;;;;;3.72;3.33;;;23.30;74.50;;;;;;10548700;28;20043;-68
2022/09/04 20:05:33;;;;;;;3.35;2.83;;;23.30;74.60;;;;;;10544686;28;20035;-63
2022/09/04 20:10:59;;;;;;;3.50;3.20;;;23.30;74.60;;;;;;10551702;28;20535;-62
2022/09/04 20:16:30;;;;;;;3.53;3.23;;;23.20;74.60;;;;;;10548375;28;20036;-66
2022/09/04 20:21:56;;;;;;;3.20;2.72;;;23.20;74.60;;;;;;10550580;28;20419;-62
2022/09/04 20:27:37;;;;;;;3.92;2.88;;;23.20;74.60;;;;;;10546431;28;20056;-66
2022/09/04 20:33:23;;;;;;;5.35;2.80;;;23.20;74.60;;;;;;10546885;28;20099;-62
2022/09/04 20:39:04;;;;;;;4.65;3.00;;;23.10;74.50;;;;;;10551258;27;20032;-65
2022/09/04 20:44:26;;;;;;;3.50;3.20;;;23.10;74.60;;;;;;10553602;28;20492;-62
2022/09/04 20:50:03;;;;;;;3.22;2.70;;;23.10;74.60;;;;;;10552986;28;20016;-62
2022/09/04 20:55:48;;;;;;;3.50;2.90;;;23.10;74.60;;;;;;10551861;28;20392;-69
2022/09/04 21:01:09;;;;;;;3.03;2.72;;;23.00;74.60;;;;;;10538009;28;20020;-68
2022/09/04 21:06:51;;;;;;;3.45;3.15;;;23.00;74.60;;;;;;10561760;28;20111;-62
2022/09/04 21:12:36;;;;;;;2.90;2.60;;;23.00;74.70;;;;;;10557540;28;20035;-62
2022/09/04 21:18:18;;;;;;;3.20;2.90;;;23.00;74.70;;;;;;10561356;28;20070;-63
2022/09/04 21:24:07;;;;;;;4.75;2.60;;;22.90;74.70;;;;;;10541191;27;20027;-63
2022/09/04 21:29:35;;;;;;;3.67;3.20;;;22.90;74.70;;;;;;10558785;28;20047;-66
2022/09/04 21:35:07;;;;;;;3.75;2.50;;;22.90;74.70;;;;;;10561165;28;20032;-63
2022/09/04 21:40:40;;;;;;;2.70;2.50;;;22.90;74.80;;;;;;10552272;28;20028;-68
2022/09/04 21:46:27;;;;;;;3.47;2.97;;;22.80;74.70;;;;;;10548080;28;20403;-62
2022/09/04 21:51:59;;;;;;;3.45;2.80;;;22.80;74.80;;;;;;10549468;28;20477;-62
2022/09/04 21:57:35;;;;;;;2.72;2.50;;;22.80;74.80;;;;;;10560908;28;20110;-63
2022/09/04 22:03:13;;;;;;;3.30;2.60;;;22.70;74.80;;;;;;10546172;28;20058;-66
2022/09/04 22:09:08;;;;;;;3.10;2.70;;;22.70;74.80;;;;;;10561064;28;20663;-62
2022/09/04 22:14:44;;;;;;;2.80;2.60;;;22.70;74.90;;;;;;10559157;27;20488;-62
2022/09/04 22:20:31;;;;;;;3.87;2.80;;;22.70;74.90;;;;;;10562446;28;20027;-62
2022/09/04 22:26:27;;;;;;;3.70;3.00;;;22.60;74.90;;;;;;10559422;28;20036;-68
2022/09/04 22:32:19;;;;;;;3.60;2.75;;;22.60;75.00;;;;;;10558902;28;20032;-62
2022/09/04 22:38:03;;;;;;;2.85;2.65;;;22.60;75.00;;;;;;10561236;28;20031;-64
2022/09/04 22:43:24;;;;;;;3.10;2.80;;;22.60;75.10;;;;;;10557202;28;20032;-67
2022/09/04 22:49:08;;;;;;;3.10;2.90;;;22.50;75.00;;;;;;10564064;28;20039;-64
2022/09/04 22:54:48;;;;;;;3.60;2.67;;;22.50;75.10;;;;;;10564781;28;20039;-65
2022/09/04 23:00:11;;;;;;;2.83;2.55;;;22.50;75.10;;;;;;10559105;28;20079;-65
2022/09/04 23:05:49;;;;;;;4.03;2.95;;;22.50;75.10;;;;;;10562556;28;20040;-65
2022/09/04 23:11:14;;;;;;;2.83;2.60;;;22.40;75.20;;;;;;10562078;28;20035;-65
2022/09/04 23:16:51;;;;;;;2.85;2.65;;;22.40;75.10;;;;;;10562447;28;20019;-64
2022/09/04 23:22:24;;;;;;;4.10;2.70;;;22.40;75.20;;;;;;10563226;28;20027;-68
2022/09/04 23:27:44;;;;;;;3.65;2.92;;;22.40;75.20;;;;;;10561321;28;20116;-67
2022/09/04 23:33:37;;;;;;;3.17;2.88;;;22.40;75.20;;;;;;10548048;28;20027;-65
2022/09/04 23:39:27;;;;;;;3.15;2.70;;;22.30;75.20;;;;;;10562191;28;20036;-63
2022/09/04 23:45:32;;;;;;;3.20;2.90;;;22.30;75.30;;;;;;10559888;28;20028;-63
2022/09/04 23:51:21;;;;;;;3.63;3.20;;;22.30;75.30;;;;;;10567400;28;20495;-63
2022/09/04 23:56:46;;;;;;;3.38;3.08;;;22.20;75.30;;;;;;10564736;28;20122;-67
